sensor_id;sensor_type;location;lat;lon;timestamp;P1;durP1;ratioP1;P2;durP2;ratioP2
79414;SDS011;68864;44.972;19.612;2023-04-24T00:00:28;8.88;;;3.67;;
79414;SDS011;68864;44.972;19.612;2023-04-24T00:02:56;12.20;;;4.43;;
79414;SDS011;68864;44.972;19.612;2023-04-24T00:05:23;13.15;;;4.90;;
79414;SDS011;68864;44.972;19.612;2023-04-24T00:07:52;12.80;;;7.93;;
79414;SDS011;68864;44.972;19.612;2023-04-24T00:10:19;11.80;;;6.82;;
79414;SDS011;68864;44.972;19.612;2023-04-24T00:12:46;12.07;;;7.25;;
79414;SDS011;68864;44.972;19.612;2023-04-24T00:15:13;15.55;;;9.05;;
79414;SDS011;68864;44.972;19.612;2023-04-24T00:17:40;18.17;;;9.77;;
79414;SDS011;68864;44.972;19.612;2023-04-24T00:20:07;27.52;;;15.55;;
79414;SDS011;68864;44.972;19.612;2023-04-24T00:22:35;32.05;;;15.85;;
79414;SDS011;68864;44.972;19.612;2023-04-24T00:25:04;24.92;;;10.90;;
79414;SDS011;68864;44.972;19.612;2023-04-24T00:27:31;20.80;;;8.90;;
79414;SDS011;68864;44.972;19.612;2023-04-24T00:30:00;19.08;;;9.95;;
79414;SDS011;68864;44.972;19.612;2023-04-24T00:32:26;15.25;;;9.43;;
79414;SDS011;68864;44.972;19.612;2023-04-24T00:34:53;12.45;;;9.52;;
79414;SDS011;68864;44.972;19.612;2023-04-24T00:37:20;15.88;;;9.40;;
79414;SDS011;68864;44.972;19.612;2023-04-24T00:39:47;22.23;;;10.63;;
79414;SDS011;68864;44.972;19.612;2023-04-24T00:42:15;18.60;;;8.45;;
79414;SDS011;68864;44.972;19.612;2023-04-24T00:44:41;16.90;;;9.38;;
79414;SDS011;68864;44.972;19.612;2023-04-24T00:47:08;13.48;;;7.97;;
79414;SDS011;68864;44.972;19.612;2023-04-24T00:49:36;14.05;;;7.00;;
79414;SDS011;68864;44.972;19.612;2023-04-24T00:52:03;13.77;;;7.30;;
79414;SDS011;68864;44.972;19.612;2023-04-24T00:54:33;14.27;;;4.75;;
79414;SDS011;68864;44.972;19.612;2023-04-24T00:57:00;9.88;;;6.78;;
79414;SDS011;68864;44.972;19.612;2023-04-24T00:59:29;11.48;;;6.75;;
79414;SDS011;68864;44.972;19.612;2023-04-24T01:01:56;11.55;;;7.88;;
79414;SDS011;68864;44.972;19.612;2023-04-24T01:04:23;10.48;;;7.15;;
79414;SDS011;68864;44.972;19.612;2023-04-24T01:06:52;10.63;;;4.88;;
79414;SDS011;68864;44.972;19.612;2023-04-24T01:09:20;10.10;;;3.72;;
79414;SDS011;68864;44.972;19.612;2023-04-24T01:11:49;12.52;;;7.55;;
79414;SDS011;68864;44.972;19.612;2023-04-24T01:14:16;12.27;;;3.53;;
79414;SDS011;68864;44.972;19.612;2023-04-24T01:16:44;9.55;;;7.32;;
79414;SDS011;68864;44.972;19.612;2023-04-24T01:19:11;11.25;;;3.80;;
79414;SDS011;68864;44.972;19.612;2023-04-24T01:21:41;13.60;;;8.40;;
79414;SDS011;68864;44.972;19.612;2023-04-24T01:24:10;9.32;;;7.68;;
79414;SDS011;68864;44.972;19.612;2023-04-24T01:26:38;12.55;;;8.20;;
79414;SDS011;68864;44.972;19.612;2023-04-24T01:29:05;15.88;;;8.70;;
79414;SDS011;68864;44.972;19.612;2023-04-24T01:31:31;12.18;;;5.85;;
79414;SDS011;68864;44.972;19.612;2023-04-24T01:33:59;9.48;;;4.95;;
79414;SDS011;68864;44.972;19.612;2023-04-24T01:36:26;13.77;;;9.82;;
79414;SDS011;68864;44.972;19.612;2023-04-24T01:38:54;12.68;;;8.90;;
79414;SDS011;68864;44.972;19.612;2023-04-24T01:41:23;15.77;;;12.50;;
79414;SDS011;68864;44.972;19.612;2023-04-24T01:43:49;14.40;;;6.25;;
79414;SDS011;68864;44.972;19.612;2023-04-24T01:46:16;10.70;;;8.18;;
79414;SDS011;68864;44.972;19.612;2023-04-24T01:51:11;14.50;;;8.80;;
79414;SDS011;68864;44.972;19.612;2023-04-24T01:53:37;13.18;;;10.50;;
79414;SDS011;68864;44.972;19.612;2023-04-24T01:56:04;17.92;;;10.65;;
79414;SDS011;68864;44.972;19.612;2023-04-24T01:58:33;14.07;;;7.43;;
79414;SDS011;68864;44.972;19.612;2023-04-24T02:00:59;14.02;;;9.80;;
79414;SDS011;68864;44.972;19.612;2023-04-24T02:03:26;15.52;;;11.68;;
79414;SDS011;68864;44.972;19.612;2023-04-24T02:05:53;16.30;;;10.80;;
79414;SDS011;68864;44.972;19.612;2023-04-24T02:08:20;15.38;;;11.35;;
79414;SDS011;68864;44.972;19.612;2023-04-24T02:10:47;18.50;;;13.02;;
79414;SDS011;68864;44.972;19.612;2023-04-24T02:13:14;14.55;;;11.05;;
79414;SDS011;68864;44.972;19.612;2023-04-24T02:15:43;16.48;;;11.32;;
79414;SDS011;68864;44.972;19.612;2023-04-24T02:18:09;15.30;;;8.43;;
79414;SDS011;68864;44.972;19.612;2023-04-24T02:20:37;15.75;;;11.07;;
79414;SDS011;68864;44.972;19.612;2023-04-24T02:23:04;14.98;;;11.48;;
79414;SDS011;68864;44.972;19.612;2023-04-24T02:25:31;17.05;;;11.73;;
79414;SDS011;68864;44.972;19.612;2023-04-24T02:27:58;13.88;;;6.50;;
79414;SDS011;68864;44.972;19.612;2023-04-24T02:30:24;18.63;;;10.75;;
79414;SDS011;68864;44.972;19.612;2023-04-24T02:32:52;14.52;;;8.05;;
79414;SDS011;68864;44.972;19.612;2023-04-24T02:35:20;14.52;;;6.93;;
79414;SDS011;68864;44.972;19.612;2023-04-24T02:37:47;17.52;;;9.52;;
79414;SDS011;68864;44.972;19.612;2023-04-24T02:40:13;16.48;;;10.48;;
79414;SDS011;68864;44.972;19.612;2023-04-24T02:42:40;12.70;;;6.70;;
79414;SDS011;68864;44.972;19.612;2023-04-24T02:45:07;12.23;;;7.82;;
79414;SDS011;68864;44.972;19.612;2023-04-24T02:47:34;16.80;;;7.80;;
79414;SDS011;68864;44.972;19.612;2023-04-24T02:50:03;11.95;;;6.72;;
79414;SDS011;68864;44.972;19.612;2023-04-24T02:52:30;16.38;;;9.77;;
79414;SDS011;68864;44.972;19.612;2023-04-24T02:54:57;19.08;;;9.98;;
79414;SDS011;68864;44.972;19.612;2023-04-24T02:57:24;15.93;;;10.45;;
79414;SDS011;68864;44.972;19.612;2023-04-24T02:59:50;13.18;;;5.65;;
79414;SDS011;68864;44.972;19.612;2023-04-24T03:02:17;16.52;;;9.75;;
79414;SDS011;68864;44.972;19.612;2023-04-24T03:04:45;17.60;;;9.18;;
79414;SDS011;68864;44.972;19.612;2023-04-24T03:09:41;12.95;;;8.90;;
79414;SDS011;68864;44.972;19.612;2023-04-24T03:12:08;13.40;;;10.23;;
79414;SDS011;68864;44.972;19.612;2023-04-24T03:14:35;11.07;;;8.18;;
79414;SDS011;68864;44.972;19.612;2023-04-24T03:17:01;14.93;;;9.55;;
79414;SDS011;68864;44.972;19.612;2023-04-24T03:19:28;16.42;;;12.57;;
79414;SDS011;68864;44.972;19.612;2023-04-24T03:21:55;11.25;;;6.57;;
79414;SDS011;68864;44.972;19.612;2023-04-24T03:24:23;13.90;;;10.82;;
79414;SDS011;68864;44.972;19.612;2023-04-24T03:26:50;16.30;;;11.60;;
79414;SDS011;68864;44.972;19.612;2023-04-24T03:29:16;16.75;;;9.68;;
79414;SDS011;68864;44.972;19.612;2023-04-24T03:31:43;17.38;;;11.80;;
79414;SDS011;68864;44.972;19.612;2023-04-24T03:34:10;15.85;;;11.52;;
79414;SDS011;68864;44.972;19.612;2023-04-24T03:36:37;19.30;;;10.75;;
79414;SDS011;68864;44.972;19.612;2023-04-24T03:39:04;15.73;;;11.88;;
79414;SDS011;68864;44.972;19.612;2023-04-24T03:41:32;19.85;;;12.30;;
79414;SDS011;68864;44.972;19.612;2023-04-24T03:43:58;17.42;;;12.40;;
79414;SDS011;68864;44.972;19.612;2023-04-24T03:46:25;25.27;;;13.45;;
79414;SDS011;68864;44.972;19.612;2023-04-24T03:48:52;22.02;;;13.93;;
79414;SDS011;68864;44.972;19.612;2023-04-24T03:51:18;25.90;;;17.27;;
79414;SDS011;68864;44.972;19.612;2023-04-24T03:53:45;27.40;;;17.55;;
79414;SDS011;68864;44.972;19.612;2023-04-24T03:56:12;21.75;;;12.55;;
79414;SDS011;68864;44.972;19.612;2023-04-24T03:58:40;25.92;;;14.93;;
79414;SDS011;68864;44.972;19.612;2023-04-24T04:01:07;16.20;;;11.48;;
79414;SDS011;68864;44.972;19.612;2023-04-24T04:03:33;15.15;;;10.85;;
79414;SDS011;68864;44.972;19.612;2023-04-24T04:06:00;17.38;;;11.40;;
79414;SDS011;68864;44.972;19.612;2023-04-24T04:08:27;15.60;;;10.00;;
79414;SDS011;68864;44.972;19.612;2023-04-24T04:10:54;17.55;;;10.48;;
79414;SDS011;68864;44.972;19.612;2023-04-24T04:13:20;18.80;;;11.85;;
79414;SDS011;68864;44.972;19.612;2023-04-24T04:15:48;16.23;;;9.20;;
79414;SDS011;68864;44.972;19.612;2023-04-24T04:18:15;14.50;;;7.10;;
79414;SDS011;68864;44.972;19.612;2023-04-24T04:20:42;18.05;;;10.73;;
79414;SDS011;68864;44.972;19.612;2023-04-24T04:23:09;13.50;;;6.43;;
79414;SDS011;68864;44.972;19.612;2023-04-24T04:25:35;12.35;;;9.00;;
79414;SDS011;68864;44.972;19.612;2023-04-24T04:28:02;12.90;;;10.70;;
79414;SDS011;68864;44.972;19.612;2023-04-24T04:32:58;10.73;;;5.53;;
79414;SDS011;68864;44.972;19.612;2023-04-24T04:35:25;16.55;;;7.45;;
79414;SDS011;68864;44.972;19.612;2023-04-24T04:37:52;19.92;;;11.02;;
79414;SDS011;68864;44.972;19.612;2023-04-24T04:40:19;15.00;;;11.32;;
79414;SDS011;68864;44.972;19.612;2023-04-24T04:42:46;11.90;;;8.65;;
79414;SDS011;68864;44.972;19.612;2023-04-24T04:45:12;13.15;;;9.35;;
79414;SDS011;68864;44.972;19.612;2023-04-24T04:47:42;15.57;;;8.55;;
79414;SDS011;68864;44.972;19.612;2023-04-24T04:50:10;12.23;;;8.55;;
79414;SDS011;68864;44.972;19.612;2023-04-24T04:52:37;14.30;;;9.68;;
79414;SDS011;68864;44.972;19.612;2023-04-24T04:55:04;11.35;;;5.68;;
79414;SDS011;68864;44.972;19.612;2023-04-24T04:57:32;21.77;;;9.60;;
79414;SDS011;68864;44.972;19.612;2023-04-24T04:59:59;14.63;;;6.22;;
79414;SDS011;68864;44.972;19.612;2023-04-24T05:02:26;16.33;;;10.45;;
79414;SDS011;68864;44.972;19.612;2023-04-24T05:04:53;17.75;;;11.23;;
79414;SDS011;68864;44.972;19.612;2023-04-24T05:07:21;15.48;;;7.85;;
79414;SDS011;68864;44.972;19.612;2023-04-24T05:09:48;16.05;;;6.38;;
79414;SDS011;68864;44.972;19.612;2023-04-24T05:12:16;17.10;;;7.45;;
79414;SDS011;68864;44.972;19.612;2023-04-24T05:14:43;16.95;;;8.50;;
79414;SDS011;68864;44.972;19.612;2023-04-24T05:17:09;13.18;;;9.35;;
79414;SDS011;68864;44.972;19.612;2023-04-24T05:19:36;13.43;;;9.45;;
79414;SDS011;68864;44.972;19.612;2023-04-24T05:22:03;20.33;;;11.68;;
79414;SDS011;68864;44.972;19.612;2023-04-24T05:24:33;12.27;;;9.57;;
79414;SDS011;68864;44.972;19.612;2023-04-24T05:26:59;14.15;;;9.63;;
79414;SDS011;68864;44.972;19.612;2023-04-24T05:29:27;10.93;;;6.20;;
79414;SDS011;68864;44.972;19.612;2023-04-24T05:31:55;13.40;;;5.68;;
79414;SDS011;68864;44.972;19.612;2023-04-24T05:34:22;9.85;;;5.57;;
79414;SDS011;68864;44.972;19.612;2023-04-24T05:36:49;16.42;;;5.53;;
79414;SDS011;68864;44.972;19.612;2023-04-24T05:39:16;11.35;;;8.77;;
79414;SDS011;68864;44.972;19.612;2023-04-24T05:41:46;13.25;;;4.90;;
79414;SDS011;68864;44.972;19.612;2023-04-24T05:44:12;13.23;;;4.28;;
79414;SDS011;68864;44.972;19.612;2023-04-24T05:46:39;12.90;;;7.13;;
79414;SDS011;68864;44.972;19.612;2023-04-24T05:49:06;10.20;;;7.53;;
79414;SDS011;68864;44.972;19.612;2023-04-24T05:51:33;13.93;;;7.43;;
79414;SDS011;68864;44.972;19.612;2023-04-24T05:56:28;11.68;;;7.38;;
79414;SDS011;68864;44.972;19.612;2023-04-24T05:58:56;13.85;;;4.28;;
79414;SDS011;68864;44.972;19.612;2023-04-24T06:01:23;13.32;;;9.23;;
79414;SDS011;68864;44.972;19.612;2023-04-24T06:06:17;9.95;;;6.95;;
79414;SDS011;68864;44.972;19.612;2023-04-24T06:08:44;9.10;;;4.10;;
79414;SDS011;68864;44.972;19.612;2023-04-24T06:11:11;11.45;;;7.93;;
79414;SDS011;68864;44.972;19.612;2023-04-24T06:13:38;9.30;;;4.47;;
79414;SDS011;68864;44.972;19.612;2023-04-24T06:16:06;10.88;;;4.97;;
79414;SDS011;68864;44.972;19.612;2023-04-24T06:18:33;9.80;;;4.80;;
79414;SDS011;68864;44.972;19.612;2023-04-24T06:20:59;11.07;;;5.15;;
79414;SDS011;68864;44.972;19.612;2023-04-24T06:23:26;16.65;;;9.70;;
79414;SDS011;68864;44.972;19.612;2023-04-24T06:25:53;16.70;;;5.57;;
79414;SDS011;68864;44.972;19.612;2023-04-24T06:28:19;14.50;;;4.85;;
79414;SDS011;68864;44.972;19.612;2023-04-24T06:30:46;17.02;;;10.07;;
79414;SDS011;68864;44.972;19.612;2023-04-24T06:33:15;12.07;;;7.70;;
79414;SDS011;68864;44.972;19.612;2023-04-24T06:35:42;9.02;;;4.18;;
79414;SDS011;68864;44.972;19.612;2023-04-24T06:38:09;15.02;;;9.02;;
79414;SDS011;68864;44.972;19.612;2023-04-24T06:40:35;16.35;;;5.88;;
79414;SDS011;68864;44.972;19.612;2023-04-24T06:43:02;11.57;;;9.10;;
79414;SDS011;68864;44.972;19.612;2023-04-24T06:45:29;14.02;;;9.15;;
79414;SDS011;68864;44.972;19.612;2023-04-24T06:47:56;16.75;;;8.88;;
79414;SDS011;68864;44.972;19.612;2023-04-24T06:50:24;13.90;;;8.45;;
79414;SDS011;68864;44.972;19.612;2023-04-24T06:52:51;14.65;;;6.25;;
79414;SDS011;68864;44.972;19.612;2023-04-24T06:55:17;13.60;;;9.68;;
79414;SDS011;68864;44.972;19.612;2023-04-24T06:57:44;17.13;;;9.60;;
79414;SDS011;68864;44.972;19.612;2023-04-24T07:00:11;16.60;;;10.18;;
79414;SDS011;68864;44.972;19.612;2023-04-24T07:02:39;12.93;;;8.25;;
79414;SDS011;68864;44.972;19.612;2023-04-24T07:05:06;16.20;;;9.02;;
79414;SDS011;68864;44.972;19.612;2023-04-24T07:07:34;13.57;;;8.20;;
79414;SDS011;68864;44.972;19.612;2023-04-24T07:10:03;18.50;;;9.07;;
79414;SDS011;68864;44.972;19.612;2023-04-24T07:12:30;10.63;;;4.32;;
79414;SDS011;68864;44.972;19.612;2023-04-24T07:14:57;12.98;;;9.45;;
79414;SDS011;68864;44.972;19.612;2023-04-24T07:17:24;11.95;;;5.07;;
79414;SDS011;68864;44.972;19.612;2023-04-24T07:19:50;12.05;;;5.95;;
79414;SDS011;68864;44.972;19.612;2023-04-24T07:22:17;11.98;;;7.85;;
79414;SDS011;68864;44.972;19.612;2023-04-24T07:24:45;12.40;;;7.00;;
79414;SDS011;68864;44.972;19.612;2023-04-24T07:27:12;9.25;;;6.93;;
79414;SDS011;68864;44.972;19.612;2023-04-24T07:29:39;8.98;;;4.15;;
79414;SDS011;68864;44.972;19.612;2023-04-24T07:32:06;12.85;;;6.40;;
79414;SDS011;68864;44.972;19.612;2023-04-24T07:34:34;13.82;;;7.15;;
79414;SDS011;68864;44.972;19.612;2023-04-24T07:37:01;21.10;;;7.57;;
79414;SDS011;68864;44.972;19.612;2023-04-24T07:41:56;10.60;;;3.75;;
79414;SDS011;68864;44.972;19.612;2023-04-24T07:44:24;9.93;;;8.70;;
79414;SDS011;68864;44.972;19.612;2023-04-24T07:46:51;9.23;;;7.45;;
79414;SDS011;68864;44.972;19.612;2023-04-24T07:49:18;8.70;;;4.40;;
79414;SDS011;68864;44.972;19.612;2023-04-24T07:51:45;15.45;;;9.23;;
79414;SDS011;68864;44.972;19.612;2023-04-24T07:54:11;12.18;;;8.00;;
79414;SDS011;68864;44.972;19.612;2023-04-24T07:56:38;11.50;;;7.72;;
79414;SDS011;68864;44.972;19.612;2023-04-24T07:59:09;9.90;;;4.45;;
79414;SDS011;68864;44.972;19.612;2023-04-24T08:01:36;11.57;;;5.03;;
79414;SDS011;68864;44.972;19.612;2023-04-24T08:04:03;10.45;;;4.88;;
79414;SDS011;68864;44.972;19.612;2023-04-24T08:06:29;12.07;;;8.70;;
79414;SDS011;68864;44.972;19.612;2023-04-24T08:08:57;10.18;;;4.78;;
79414;SDS011;68864;44.972;19.612;2023-04-24T08:11:24;14.60;;;8.35;;
79414;SDS011;68864;44.972;19.612;2023-04-24T08:13:51;8.15;;;3.10;;
79414;SDS011;68864;44.972;19.612;2023-04-24T08:16:21;14.15;;;8.13;;
79414;SDS011;68864;44.972;19.612;2023-04-24T08:18:48;14.07;;;9.25;;
79414;SDS011;68864;44.972;19.612;2023-04-24T08:21:15;13.20;;;8.13;;
79414;SDS011;68864;44.972;19.612;2023-04-24T08:23:43;13.02;;;7.88;;
79414;SDS011;68864;44.972;19.612;2023-04-24T08:28:37;11.05;;;9.20;;
79414;SDS011;68864;44.972;19.612;2023-04-24T08:31:04;9.60;;;7.15;;
79414;SDS011;68864;44.972;19.612;2023-04-24T08:33:32;14.90;;;9.77;;
79414;SDS011;68864;44.972;19.612;2023-04-24T08:36:00;12.38;;;5.07;;
79414;SDS011;68864;44.972;19.612;2023-04-24T08:38:27;11.30;;;5.22;;
79414;SDS011;68864;44.972;19.612;2023-04-24T08:40:54;11.50;;;8.63;;
79414;SDS011;68864;44.972;19.612;2023-04-24T08:43:24;11.93;;;8.20;;
79414;SDS011;68864;44.972;19.612;2023-04-24T08:45:52;9.63;;;7.20;;
79414;SDS011;68864;44.972;19.612;2023-04-24T08:48:18;14.68;;;9.57;;
79414;SDS011;68864;44.972;19.612;2023-04-24T08:50:49;9.82;;;7.70;;
79414;SDS011;68864;44.972;19.612;2023-04-24T08:53:17;10.13;;;8.10;;
79414;SDS011;68864;44.972;19.612;2023-04-24T08:55:45;9.93;;;5.18;;
79414;SDS011;68864;44.972;19.612;2023-04-24T08:58:14;14.05;;;9.10;;
79414;SDS011;68864;44.972;19.612;2023-04-24T09:00:42;17.27;;;10.50;;
79414;SDS011;68864;44.972;19.612;2023-04-24T09:03:12;9.52;;;4.65;;
79414;SDS011;68864;44.972;19.612;2023-04-24T09:05:40;9.20;;;5.90;;
79414;SDS011;68864;44.972;19.612;2023-04-24T09:08:12;13.30;;;9.75;;
79414;SDS011;68864;44.972;19.612;2023-04-24T09:10:40;16.58;;;11.60;;
79414;SDS011;68864;44.972;19.612;2023-04-24T09:13:07;17.83;;;8.60;;
79414;SDS011;68864;44.972;19.612;2023-04-24T09:15:35;17.48;;;9.55;;
79414;SDS011;68864;44.972;19.612;2023-04-24T09:18:02;13.75;;;8.52;;
79414;SDS011;68864;44.972;19.612;2023-04-24T09:20:29;15.68;;;11.60;;
79414;SDS011;68864;44.972;19.612;2023-04-24T09:22:56;17.27;;;9.38;;
79414;SDS011;68864;44.972;19.612;2023-04-24T09:25:24;14.10;;;6.63;;
79414;SDS011;68864;44.972;19.612;2023-04-24T09:28:00;13.07;;;8.50;;
79414;SDS011;68864;44.972;19.612;2023-04-24T09:30:27;13.02;;;4.82;;
79414;SDS011;68864;44.972;19.612;2023-04-24T09:33:09;14.43;;;10.15;;
79414;SDS011;68864;44.972;19.612;2023-04-24T09:35:37;13.25;;;10.52;;
79414;SDS011;68864;44.972;19.612;2023-04-24T09:38:07;18.55;;;9.40;;
79414;SDS011;68864;44.972;19.612;2023-04-24T09:40:36;15.07;;;8.35;;
79414;SDS011;68864;44.972;19.612;2023-04-24T09:43:02;15.15;;;6.78;;
79414;SDS011;68864;44.972;19.612;2023-04-24T09:45:34;9.02;;;4.97;;
79414;SDS011;68864;44.972;19.612;2023-04-24T09:48:02;8.23;;;4.57;;
79414;SDS011;68864;44.972;19.612;2023-04-24T09:50:30;12.65;;;10.73;;
79414;SDS011;68864;44.972;19.612;2023-04-24T09:53:01;10.80;;;5.22;;
79414;SDS011;68864;44.972;19.612;2023-04-24T09:55:29;12.57;;;4.80;;
79414;SDS011;68864;44.972;19.612;2023-04-24T09:57:58;10.52;;;8.90;;
79414;SDS011;68864;44.972;19.612;2023-04-24T10:00:27;8.98;;;4.57;;
79414;SDS011;68864;44.972;19.612;2023-04-24T10:02:56;14.35;;;8.63;;
79414;SDS011;68864;44.972;19.612;2023-04-24T10:05:25;14.98;;;9.98;;
79414;SDS011;68864;44.972;19.612;2023-04-24T10:07:57;8.55;;;4.93;;
79414;SDS011;68864;44.972;19.612;2023-04-24T10:10:26;9.88;;;8.43;;
79414;SDS011;68864;44.972;19.612;2023-04-24T10:12:53;11.55;;;5.20;;
79414;SDS011;68864;44.972;19.612;2023-04-24T10:15:22;13.43;;;9.70;;
79414;SDS011;68864;44.972;19.612;2023-04-24T10:17:49;11.13;;;5.68;;
79414;SDS011;68864;44.972;19.612;2023-04-24T10:20:19;11.18;;;7.85;;
79414;SDS011;68864;44.972;19.612;2023-04-24T10:22:47;10.00;;;8.45;;
79414;SDS011;68864;44.972;19.612;2023-04-24T10:25:16;7.80;;;4.40;;
79414;SDS011;68864;44.972;19.612;2023-04-24T10:27:45;8.63;;;4.50;;
79414;SDS011;68864;44.972;19.612;2023-04-24T10:30:12;13.00;;;8.60;;
79414;SDS011;68864;44.972;19.612;2023-04-24T10:32:41;14.73;;;7.20;;
79414;SDS011;68864;44.972;19.612;2023-04-24T10:35:08;10.00;;;8.13;;
79414;SDS011;68864;44.972;19.612;2023-04-24T10:40:04;12.98;;;8.80;;
79414;SDS011;68864;44.972;19.612;2023-04-24T10:42:33;10.80;;;7.50;;
79414;SDS011;68864;44.972;19.612;2023-04-24T10:45:04;11.13;;;7.13;;
79414;SDS011;68864;44.972;19.612;2023-04-24T10:47:39;10.05;;;6.53;;
79414;SDS011;68864;44.972;19.612;2023-04-24T10:50:09;11.80;;;6.85;;
79414;SDS011;68864;44.972;19.612;2023-04-24T10:52:45;9.18;;;4.25;;
79414;SDS011;68864;44.972;19.612;2023-04-24T10:55:13;10.98;;;7.10;;
79414;SDS011;68864;44.972;19.612;2023-04-24T10:57:46;10.65;;;6.72;;
79414;SDS011;68864;44.972;19.612;2023-04-24T11:00:28;8.20;;;3.58;;
79414;SDS011;68864;44.972;19.612;2023-04-24T11:02:54;8.48;;;2.83;;
79414;SDS011;68864;44.972;19.612;2023-04-24T11:05:48;6.57;;;2.47;;
79414;SDS011;68864;44.972;19.612;2023-04-24T11:08:21;8.35;;;4.35;;
79414;SDS011;68864;44.972;19.612;2023-04-24T11:10:54;7.90;;;4.95;;
79414;SDS011;68864;44.972;19.612;2023-04-24T11:13:23;8.35;;;5.68;;
79414;SDS011;68864;44.972;19.612;2023-04-24T11:18:38;10.05;;;5.03;;
79414;SDS011;68864;44.972;19.612;2023-04-24T11:21:11;6.25;;;2.15;;
79414;SDS011;68864;44.972;19.612;2023-04-24T11:23:38;8.25;;;5.47;;
79414;SDS011;68864;44.972;19.612;2023-04-24T11:26:12;8.88;;;5.57;;
79414;SDS011;68864;44.972;19.612;2023-04-24T11:28:46;8.68;;;5.07;;
79414;SDS011;68864;44.972;19.612;2023-04-24T11:34:06;10.90;;;5.90;;
79414;SDS011;68864;44.972;19.612;2023-04-24T11:36:35;15.80;;;5.90;;
79414;SDS011;68864;44.972;19.612;2023-04-24T11:39:02;9.30;;;5.25;;
79414;SDS011;68864;44.972;19.612;2023-04-24T11:41:30;7.85;;;5.35;;
79414;SDS011;68864;44.972;19.612;2023-04-24T11:43:57;7.82;;;4.40;;
79414;SDS011;68864;44.972;19.612;2023-04-24T11:46:26;7.72;;;3.65;;
79414;SDS011;68864;44.972;19.612;2023-04-24T11:48:53;7.95;;;4.65;;
79414;SDS011;68864;44.972;19.612;2023-04-24T11:51:20;6.20;;;3.58;;
79414;SDS011;68864;44.972;19.612;2023-04-24T11:53:50;5.93;;;4.68;;
79414;SDS011;68864;44.972;19.612;2023-04-24T11:56:17;6.30;;;3.78;;
79414;SDS011;68864;44.972;19.612;2023-04-24T11:58:45;8.82;;;3.67;;
79414;SDS011;68864;44.972;19.612;2023-04-24T12:01:12;7.82;;;3.30;;
79414;SDS011;68864;44.972;19.612;2023-04-24T12:03:39;9.40;;;4.22;;
79414;SDS011;68864;44.972;19.612;2023-04-24T12:06:08;2.65;;;0.80;;
79414;SDS011;68864;44.972;19.612;2023-04-24T12:08:36;7.95;;;5.90;;
79414;SDS011;68864;44.972;19.612;2023-04-24T12:11:06;4.57;;;3.95;;
79414;SDS011;68864;44.972;19.612;2023-04-24T12:13:33;3.67;;;0.52;;
79414;SDS011;68864;44.972;19.612;2023-04-24T12:16:02;5.20;;;2.50;;
79414;SDS011;68864;44.972;19.612;2023-04-24T12:18:30;3.25;;;0.57;;
79414;SDS011;68864;44.972;19.612;2023-04-24T12:23:42;7.40;;;3.03;;
79414;SDS011;68864;44.972;19.612;2023-04-24T12:26:11;7.78;;;3.88;;
79414;SDS011;68864;44.972;19.612;2023-04-24T12:28:39;3.90;;;3.17;;
79414;SDS011;68864;44.972;19.612;2023-04-24T12:31:06;6.57;;;4.28;;
79414;SDS011;68864;44.972;19.612;2023-04-24T12:33:34;5.05;;;1.45;;
79414;SDS011;68864;44.972;19.612;2023-04-24T12:36:01;12.38;;;4.20;;
79414;SDS011;68864;44.972;19.612;2023-04-24T12:41:02;4.63;;;2.72;;
79414;SDS011;68864;44.972;19.612;2023-04-24T12:43:31;6.10;;;3.30;;
79414;SDS011;68864;44.972;19.612;2023-04-24T12:45:58;5.57;;;3.38;;
79414;SDS011;68864;44.972;19.612;2023-04-24T12:48:25;4.97;;;1.00;;
79414;SDS011;68864;44.972;19.612;2023-04-24T12:50:52;6.93;;;3.17;;
79414;SDS011;68864;44.972;19.612;2023-04-24T12:53:18;5.40;;;1.65;;
79414;SDS011;68864;44.972;19.612;2023-04-24T12:55:45;8.60;;;4.30;;
79414;SDS011;68864;44.972;19.612;2023-04-24T12:58:17;5.28;;;4.13;;
79414;SDS011;68864;44.972;19.612;2023-04-24T13:00:46;7.57;;;3.17;;
79414;SDS011;68864;44.972;19.612;2023-04-24T13:03:13;8.35;;;3.40;;
79414;SDS011;68864;44.972;19.612;2023-04-24T13:08:08;4.65;;;3.03;;
79414;SDS011;68864;44.972;19.612;2023-04-24T13:10:35;6.65;;;4.88;;
79414;SDS011;68864;44.972;19.612;2023-04-24T13:13:02;8.45;;;3.88;;
79414;SDS011;68864;44.972;19.612;2023-04-24T13:17:57;5.85;;;3.72;;
79414;SDS011;68864;44.972;19.612;2023-04-24T13:20:24;6.28;;;3.25;;
79414;SDS011;68864;44.972;19.612;2023-04-24T13:22:51;6.90;;;3.67;;
79414;SDS011;68864;44.972;19.612;2023-04-24T13:25:17;7.18;;;1.45;;
79414;SDS011;68864;44.972;19.612;2023-04-24T13:27:45;6.18;;;1.67;;
79414;SDS011;68864;44.972;19.612;2023-04-24T13:30:12;5.88;;;1.42;;
79414;SDS011;68864;44.972;19.612;2023-04-24T13:35:07;6.55;;;4.43;;
79414;SDS011;68864;44.972;19.612;2023-04-24T13:37:34;7.13;;;3.90;;
79414;SDS011;68864;44.972;19.612;2023-04-24T13:40:01;4.60;;;1.10;;
79414;SDS011;68864;44.972;19.612;2023-04-24T13:42:31;9.40;;;5.38;;
79414;SDS011;68864;44.972;19.612;2023-04-24T13:44:57;6.55;;;1.50;;
79414;SDS011;68864;44.972;19.612;2023-04-24T13:47:24;9.65;;;4.15;;
79414;SDS011;68864;44.972;19.612;2023-04-24T13:49:51;7.57;;;3.60;;
79414;SDS011;68864;44.972;19.612;2023-04-24T13:52:20;6.72;;;5.68;;
79414;SDS011;68864;44.972;19.612;2023-04-24T13:54:47;8.32;;;6.30;;
79414;SDS011;68864;44.972;19.612;2023-04-24T13:57:14;7.65;;;2.53;;
79414;SDS011;68864;44.972;19.612;2023-04-24T13:59:41;9.05;;;3.67;;
79414;SDS011;68864;44.972;19.612;2023-04-24T14:02:08;7.63;;;5.45;;
79414;SDS011;68864;44.972;19.612;2023-04-24T14:04:35;8.38;;;4.32;;
79414;SDS011;68864;44.972;19.612;2023-04-24T14:07:02;8.02;;;4.57;;
79414;SDS011;68864;44.972;19.612;2023-04-24T14:09:30;6.05;;;4.50;;
79414;SDS011;68864;44.972;19.612;2023-04-24T14:11:56;4.80;;;3.97;;
79414;SDS011;68864;44.972;19.612;2023-04-24T14:14:23;6.75;;;4.50;;
79414;SDS011;68864;44.972;19.612;2023-04-24T14:16:50;6.32;;;4.50;;
79414;SDS011;68864;44.972;19.612;2023-04-24T14:19:17;10.30;;;5.95;;
79414;SDS011;68864;44.972;19.612;2023-04-24T14:21:43;9.70;;;6.03;;
79414;SDS011;68864;44.972;19.612;2023-04-24T14:24:10;6.57;;;4.22;;
79414;SDS011;68864;44.972;19.612;2023-04-24T14:26:38;7.35;;;3.92;;
79414;SDS011;68864;44.972;19.612;2023-04-24T14:29:05;9.30;;;5.28;;
79414;SDS011;68864;44.972;19.612;2023-04-24T14:31:32;6.97;;;3.92;;
79414;SDS011;68864;44.972;19.612;2023-04-24T14:33:59;9.15;;;4.97;;
79414;SDS011;68864;44.972;19.612;2023-04-24T14:36:26;5.35;;;2.95;;
79414;SDS011;68864;44.972;19.612;2023-04-24T14:38:53;6.53;;;5.35;;
79414;SDS011;68864;44.972;19.612;2023-04-24T14:41:19;7.32;;;4.47;;
79414;SDS011;68864;44.972;19.612;2023-04-24T14:43:47;6.78;;;5.35;;
79414;SDS011;68864;44.972;19.612;2023-04-24T14:46:14;7.80;;;4.43;;
79414;SDS011;68864;44.972;19.612;2023-04-24T14:48:41;12.10;;;2.90;;
79414;SDS011;68864;44.972;19.612;2023-04-24T14:51:08;10.15;;;4.25;;
79414;SDS011;68864;44.972;19.612;2023-04-24T14:53:34;8.50;;;5.28;;
79414;SDS011;68864;44.972;19.612;2023-04-24T14:56:01;6.50;;;3.72;;
79414;SDS011;68864;44.972;19.612;2023-04-24T14:58:28;15.23;;;5.18;;
79414;SDS011;68864;44.972;19.612;2023-04-24T15:00:56;8.80;;;4.95;;
79414;SDS011;68864;44.972;19.612;2023-04-24T15:03:23;11.15;;;3.67;;